sensor_id;sensor_type;location;lat;lon;timestamp;temperature;humidity
48535;DHT22;34323;52.022;5.686;2022-10-17T00:01:18;19.50;99.90
48535;DHT22;34323;52.022;5.686;2022-10-17T00:03:43;19.50;99.90
48535;DHT22;34323;52.022;5.686;2022-10-17T00:06:12;19.60;99.90
48535;DHT22;34323;52.022;5.686;2022-10-17T00:08:39;19.70;99.90
48535;DHT22;34323;52.022;5.686;2022-10-17T00:11:08;19.70;99.90
48535;DHT22;34323;52.022;5.686;2022-10-17T00:13:34;19.70;99.90
48535;DHT22;34323;52.022;5.686;2022-10-17T00:16:00;19.70;99.90
48535;DHT22;34323;52.022;5.686;2022-10-17T00:18:26;19.80;99.90
48535;DHT22;34323;52.022;5.686;2022-10-17T00:20:51;19.80;99.90
48535;DHT22;34323;52.022;5.686;2022-10-17T00:23:17;19.80;99.90
48535;DHT22;34323;52.022;5.686;2022-10-17T00:25:43;19.80;99.90
48535;DHT22;34323;52.022;5.686;2022-10-17T00:28:11;19.70;99.90
48535;DHT22;34323;52.022;5.686;2022-10-17T00:30:37;19.70;99.90
48535;DHT22;34323;52.022;5.686;2022-10-17T00:33:03;19.60;99.90
48535;DHT22;34323;52.022;5.686;2022-10-17T00:35:29;19.40;99.90
48535;DHT22;34323;52.022;5.686;2022-10-17T00:37:55;19.40;99.90
48535;DHT22;34323;52.022;5.686;2022-10-17T00:40:20;19.40;99.90
48535;DHT22;34323;52.022;5.686;2022-10-17T00:42:46;19.50;99.90
48535;DHT22;34323;52.022;5.686;2022-10-17T00:47:50;19.30;99.90
48535;DHT22;34323;52.022;5.686;2022-10-17T00:50:17;19.30;99.90
48535;DHT22;34323;52.022;5.686;2022-10-17T00:52:43;19.40;99.90
48535;DHT22;34323;52.022;5.686;2022-10-17T00:55:15;19.40;99.90
48535;DHT22;34323;52.022;5.686;2022-10-17T00:57:43;19.50;99.90
48535;DHT22;34323;52.022;5.686;2022-10-17T01:00:10;19.40;99.90
48535;DHT22;34323;52.022;5.686;2022-10-17T01:02:36;19.20;99.90
48535;DHT22;34323;52.022;5.686;2022-10-17T01:05:02;19.00;99.90
48535;DHT22;34323;52.022;5.686;2022-10-17T01:07:28;19.10;99.90
48535;DHT22;34323;52.022;5.686;2022-10-17T01:09:54;19.00;99.90
48535;DHT22;34323;52.022;5.686;2022-10-17T01:12:44;18.90;99.90
48535;DHT22;34323;52.022;5.686;2022-10-17T01:17:52;19.10;99.90
48535;DHT22;34323;52.022;5.686;2022-10-17T01:20:41;18.90;99.90
48535;DHT22;34323;52.022;5.686;2022-10-17T01:31:24;18.90;99.90
48535;DHT22;34323;52.022;5.686;2022-10-17T01:36:55;19.10;99.90
48535;DHT22;34323;52.022;5.686;2022-10-17T01:45:18;19.10;99.90
48535;DHT22;34323;52.022;5.686;2022-10-17T01:47:46;19.00;99.90
48535;DHT22;34323;52.022;5.686;2022-10-17T01:50:19;18.90;99.90
48535;DHT22;34323;52.022;5.686;2022-10-17T01:52:54;19.10;99.90
48535;DHT22;34323;52.022;5.686;2022-10-17T01:55:29;19.00;99.90
48535;DHT22;34323;52.022;5.686;2022-10-17T01:58:16;19.10;99.90
48535;DHT22;34323;52.022;5.686;2022-10-17T02:00:44;19.20;99.90
48535;DHT22;34323;52.022;5.686;2022-10-17T02:03:15;19.30;99.90
48535;DHT22;34323;52.022;5.686;2022-10-17T02:05:43;19.30;99.90
48535;DHT22;34323;52.022;5.686;2022-10-17T02:08:08;19.40;99.90
48535;DHT22;34323;52.022;5.686;2022-10-17T02:10:52;19.20;99.90
48535;DHT22;34323;52.022;5.686;2022-10-17T02:16:43;19.30;99.90
48535;DHT22;34323;52.022;5.686;2022-10-17T02:22:37;19.20;99.90
48535;DHT22;34323;52.022;5.686;2022-10-17T02:28:02;19.30;99.90
48535;DHT22;34323;52.022;5.686;2022-10-17T02:30:50;19.30;99.90
48535;DHT22;34323;52.022;5.686;2022-10-17T02:35:52;19.30;99.90
48535;DHT22;34323;52.022;5.686;2022-10-17T02:38:19;19.00;99.90
48535;DHT22;34323;52.022;5.686;2022-10-17T02:40:46;19.00;99.90
48535;DHT22;34323;52.022;5.686;2022-10-17T02:43:13;19.20;99.90
48535;DHT22;34323;52.022;5.686;2022-10-17T02:45:39;19.30;99.90
48535;DHT22;34323;52.022;5.686;2022-10-17T02:48:14;19.20;99.90
48535;DHT22;34323;52.022;5.686;2022-10-17T02:50:56;19.10;99.90
48535;DHT22;34323;52.022;5.686;2022-10-17T02:56:18;19.20;99.90
48535;DHT22;34323;52.022;5.686;2022-10-17T02:58:50;19.00;99.90
48535;DHT22;34323;52.022;5.686;2022-10-17T03:01:18;18.80;99.90
48535;DHT22;34323;52.022;5.686;2022-10-17T03:03:43;18.80;99.90
48535;DHT22;34323;52.022;5.686;2022-10-17T03:06:09;18.70;99.90
48535;DHT22;34323;52.022;5.686;2022-10-17T03:08:35;18.90;99.90
48535;DHT22;34323;52.022;5.686;2022-10-17T03:11:00;18.80;99.90
48535;DHT22;34323;52.022;5.686;2022-10-17T03:13:26;18.80;99.90
48535;DHT22;34323;52.022;5.686;2022-10-17T03:15:52;18.80;99.90
48535;DHT22;34323;52.022;5.686;2022-10-17T03:18:17;18.90;99.90
48535;DHT22;34323;52.022;5.686;2022-10-17T03:20:43;19.00;99.90
48535;DHT22;34323;52.022;5.686;2022-10-17T03:23:08;19.00;99.90
48535;DHT22;34323;52.022;5.686;2022-10-17T03:25:34;19.00;99.90
48535;DHT22;34323;52.022;5.686;2022-10-17T03:27:59;19.00;99.90
48535;DHT22;34323;52.022;5.686;2022-10-17T03:30:26;19.10;99.90
48535;DHT22;34323;52.022;5.686;2022-10-17T03:32:51;19.20;99.90
48535;DHT22;34323;52.022;5.686;2022-10-17T03:35:17;19.30;99.90
48535;DHT22;34323;52.022;5.686;2022-10-17T03:37:43;19.30;99.90
48535;DHT22;34323;52.022;5.686;2022-10-17T03:40:09;19.20;99.90
48535;DHT22;34323;52.022;5.686;2022-10-17T03:42:34;19.20;99.90
48535;DHT22;34323;52.022;5.686;2022-10-17T03:45:00;19.20;99.90
48535;DHT22;34323;52.022;5.686;2022-10-17T03:47:27;19.10;99.90
48535;DHT22;34323;52.022;5.686;2022-10-17T03:49:53;19.20;99.90
48535;DHT22;34323;52.022;5.686;2022-10-17T03:52:18;19.30;99.90
48535;DHT22;34323;52.022;5.686;2022-10-17T03:54:44;19.40;99.90
48535;DHT22;34323;52.022;5.686;2022-10-17T03:57:10;19.30;99.90
48535;DHT22;34323;52.022;5.686;2022-10-17T03:59:35;19.60;99.90
48535;DHT22;34323;52.022;5.686;2022-10-17T04:02:01;19.60;99.90
48535;DHT22;34323;52.022;5.686;2022-10-17T04:04:26;19.60;99.90
48535;DHT22;34323;52.022;5.686;2022-10-17T04:06:52;19.70;99.90
48535;DHT22;34323;52.022;5.686;2022-10-17T04:09:17;19.60;99.90
48535;DHT22;34323;52.022;5.686;2022-10-17T04:11:43;19.70;99.90
48535;DHT22;34323;52.022;5.686;2022-10-17T04:14:09;19.70;99.90
48535;DHT22;34323;52.022;5.686;2022-10-17T04:16:35;19.70;99.90
48535;DHT22;34323;52.022;5.686;2022-10-17T04:19:00;19.90;99.90
48535;DHT22;34323;52.022;5.686;2022-10-17T04:21:27;19.90;99.90
48535;DHT22;34323;52.022;5.686;2022-10-17T04:23:58;19.80;99.90
48535;DHT22;34323;52.022;5.686;2022-10-17T04:26:24;19.90;99.90
48535;DHT22;34323;52.022;5.686;2022-10-17T04:28:50;19.90;99.90
48535;DHT22;34323;52.022;5.686;2022-10-17T04:31:16;19.90;99.90
48535;DHT22;34323;52.022;5.686;2022-10-17T04:33:45;19.90;99.90
48535;DHT22;34323;52.022;5.686;2022-10-17T04:36:12;19.80;99.90
48535;DHT22;34323;52.022;5.686;2022-10-17T04:38:39;19.80;99.90
48535;DHT22;34323;52.022;5.686;2022-10-17T04:41:07;19.90;99.90
48535;DHT22;34323;52.022;5.686;2022-10-17T04:43:36;20.00;99.90
48535;DHT22;34323;52.022;5.686;2022-10-17T04:46:04;20.00;99.90
48535;DHT22;34323;52.022;5.686;2022-10-17T04:48:30;19.90;99.90
48535;DHT22;34323;52.022;5.686;2022-10-17T04:50:58;20.00;99.90
48535;DHT22;34323;52.022;5.686;2022-10-17T04:53:24;19.90;99.90
48535;DHT22;34323;52.022;5.686;2022-10-17T04:55:50;20.00;99.90
48535;DHT22;34323;52.022;5.686;2022-10-17T04:58:16;20.10;99.90
48535;DHT22;34323;52.022;5.686;2022-10-17T05:00:42;20.10;99.90
48535;DHT22;34323;52.022;5.686;2022-10-17T05:03:08;20.10;99.90
48535;DHT22;34323;52.022;5.686;2022-10-17T05:05:36;20.20;99.90
48535;DHT22;34323;52.022;5.686;2022-10-17T05:08:03;20.30;99.90
48535;DHT22;34323;52.022;5.686;2022-10-17T05:10:29;20.40;99.90
48535;DHT22;34323;52.022;5.686;2022-10-17T05:12:54;20.40;99.90
48535;DHT22;34323;52.022;5.686;2022-10-17T05:15:20;20.30;99.90
48535;DHT22;34323;52.022;5.686;2022-10-17T05:17:45;20.30;99.90
48535;DHT22;34323;52.022;5.686;2022-10-17T05:20:11;20.20;99.90
48535;DHT22;34323;52.022;5.686;2022-10-17T05:22:37;20.20;99.90
48535;DHT22;34323;52.022;5.686;2022-10-17T05:25:04;20.10;99.90
48535;DHT22;34323;52.022;5.686;2022-10-17T05:27:29;20.20;99.90
48535;DHT22;34323;52.022;5.686;2022-10-17T05:29:55;20.30;99.90
48535;DHT22;34323;52.022;5.686;2022-10-17T05:32:20;20.00;99.90
48535;DHT22;34323;52.022;5.686;2022-10-17T05:34:46;20.20;99.90
48535;DHT22;34323;52.022;5.686;2022-10-17T05:37:11;20.10;99.90
48535;DHT22;34323;52.022;5.686;2022-10-17T05:39:37;20.20;99.90
48535;DHT22;34323;52.022;5.686;2022-10-17T05:42:02;20.20;99.90
48535;DHT22;34323;52.022;5.686;2022-10-17T05:44:28;20.20;99.90
48535;DHT22;34323;52.022;5.686;2022-10-17T05:46:53;20.20;99.90
48535;DHT22;34323;52.022;5.686;2022-10-17T05:49:19;20.20;99.90
48535;DHT22;34323;52.022;5.686;2022-10-17T05:51:44;20.10;99.90
48535;DHT22;34323;52.022;5.686;2022-10-17T05:54:10;20.00;99.90
48535;DHT22;34323;52.022;5.686;2022-10-17T05:56:35;19.80;99.90
48535;DHT22;34323;52.022;5.686;2022-10-17T05:59:01;19.90;99.90
48535;DHT22;34323;52.022;5.686;2022-10-17T06:01:27;20.10;99.90
48535;DHT22;34323;52.022;5.686;2022-10-17T06:03:53;20.20;99.90
48535;DHT22;34323;52.022;5.686;2022-10-17T06:06:18;20.10;99.90
48535;DHT22;34323;52.022;5.686;2022-10-17T06:08:44;20.20;99.90
48535;DHT22;34323;52.022;5.686;2022-10-17T06:11:11;20.10;99.90
48535;DHT22;34323;52.022;5.686;2022-10-17T06:13:38;20.10;99.90
48535;DHT22;34323;52.022;5.686;2022-10-17T06:16:04;20.20;99.90
48535;DHT22;34323;52.022;5.686;2022-10-17T06:18:30;20.20;99.90
48535;DHT22;34323;52.022;5.686;2022-10-17T06:21:02;20.20;99.90
48535;DHT22;34323;52.022;5.686;2022-10-17T06:23:28;20.30;99.90
48535;DHT22;34323;52.022;5.686;2022-10-17T06:25:57;20.30;99.90
48535;DHT22;34323;52.022;5.686;2022-10-17T06:28:23;20.20;99.90
48535;DHT22;34323;52.022;5.686;2022-10-17T06:30:48;20.20;99.90
48535;DHT22;34323;52.022;5.686;2022-10-17T06:33:14;20.00;99.90
48535;DHT22;34323;52.022;5.686;2022-10-17T06:35:40;19.80;99.90
48535;DHT22;34323;52.022;5.686;2022-10-17T06:38:06;19.80;99.90
48535;DHT22;34323;52.022;5.686;2022-10-17T06:40:32;19.80;99.90
48535;DHT22;34323;52.022;5.686;2022-10-17T06:42:57;19.90;99.90
48535;DHT22;34323;52.022;5.686;2022-10-17T06:45:23;19.90;99.90
48535;DHT22;34323;52.022;5.686;2022-10-17T06:47:49;19.80;99.90
48535;DHT22;34323;52.022;5.686;2022-10-17T06:50:14;20.00;99.90
48535;DHT22;34323;52.022;5.686;2022-10-17T06:52:40;20.20;99.90
48535;DHT22;34323;52.022;5.686;2022-10-17T06:55:06;20.30;99.90
48535;DHT22;34323;52.022;5.686;2022-10-17T06:57:31;20.30;99.90
48535;DHT22;34323;52.022;5.686;2022-10-17T06:59:57;20.20;99.90
48535;DHT22;34323;52.022;5.686;2022-10-17T07:02:22;20.20;99.90
48535;DHT22;34323;52.022;5.686;2022-10-17T07:04:48;20.00;99.90
48535;DHT22;34323;52.022;5.686;2022-10-17T07:07:14;20.00;99.90
48535;DHT22;34323;52.022;5.686;2022-10-17T07:09:40;20.20;99.90
48535;DHT22;34323;52.022;5.686;2022-10-17T07:12:05;20.10;99.90
48535;DHT22;34323;52.022;5.686;2022-10-17T07:14:33;20.30;99.90
48535;DHT22;34323;52.022;5.686;2022-10-17T07:16:59;20.50;99.90
48535;DHT22;34323;52.022;5.686;2022-10-17T07:19:26;20.60;99.90
48535;DHT22;34323;52.022;5.686;2022-10-17T07:21:52;20.60;99.90
48535;DHT22;34323;52.022;5.686;2022-10-17T07:24:18;20.70;99.90
48535;DHT22;34323;52.022;5.686;2022-10-17T07:26:43;20.50;99.90
48535;DHT22;34323;52.022;5.686;2022-10-17T07:29:09;20.50;99.90
48535;DHT22;34323;52.022;5.686;2022-10-17T07:31:35;20.70;99.90
48535;DHT22;34323;52.022;5.686;2022-10-17T07:34:01;21.00;99.90
48535;DHT22;34323;52.022;5.686;2022-10-17T07:36:27;21.20;99.90
48535;DHT22;34323;52.022;5.686;2022-10-17T07:38:52;21.30;99.90
48535;DHT22;34323;52.022;5.686;2022-10-17T07:41:18;21.10;99.90
48535;DHT22;34323;52.022;5.686;2022-10-17T07:43:44;20.90;99.90
48535;DHT22;34323;52.022;5.686;2022-10-17T07:46:10;21.00;99.90
48535;DHT22;34323;52.022;5.686;2022-10-17T07:48:36;21.00;99.90
48535;DHT22;34323;52.022;5.686;2022-10-17T07:51:04;21.10;99.90
48535;DHT22;34323;52.022;5.686;2022-10-17T07:53:29;21.00;99.90
48535;DHT22;34323;52.022;5.686;2022-10-17T07:55:55;20.90;99.90
48535;DHT22;34323;52.022;5.686;2022-10-17T07:58:20;20.90;99.90
48535;DHT22;34323;52.022;5.686;2022-10-17T08:00:46;20.90;99.90
48535;DHT22;34323;52.022;5.686;2022-10-17T08:03:13;21.00;99.90
48535;DHT22;34323;52.022;5.686;2022-10-17T08:05:39;20.70;99.90
48535;DHT22;34323;52.022;5.686;2022-10-17T08:08:04;21.00;99.90
48535;DHT22;34323;52.022;5.686;2022-10-17T08:10:30;21.20;99.90
48535;DHT22;34323;52.022;5.686;2022-10-17T08:12:56;21.20;99.90
48535;DHT22;34323;52.022;5.686;2022-10-17T08:15:23;21.20;99.90
48535;DHT22;34323;52.022;5.686;2022-10-17T08:17:49;21.30;99.90
48535;DHT22;34323;52.022;5.686;2022-10-17T08:20:15;21.30;99.90
48535;DHT22;34323;52.022;5.686;2022-10-17T08:22:41;21.30;99.90
48535;DHT22;34323;52.022;5.686;2022-10-17T08:25:06;21.40;99.90
48535;DHT22;34323;52.022;5.686;2022-10-17T08:27:33;20.90;99.90
48535;DHT22;34323;52.022;5.686;2022-10-17T08:29:59;20.50;99.90
48535;DHT22;34323;52.022;5.686;2022-10-17T08:32:26;20.50;99.90
48535;DHT22;34323;52.022;5.686;2022-10-17T08:34:52;20.40;99.90
48535;DHT22;34323;52.022;5.686;2022-10-17T08:37:18;20.50;99.90
48535;DHT22;34323;52.022;5.686;2022-10-17T08:39:44;20.80;99.90
48535;DHT22;34323;52.022;5.686;2022-10-17T08:47:38;21.40;99.90
48535;DHT22;34323;52.022;5.686;2022-10-17T08:50:10;21.70;99.90
48535;DHT22;34323;52.022;5.686;2022-10-17T08:52:50;21.70;99.90
48535;DHT22;34323;52.022;5.686;2022-10-17T08:55:28;21.50;99.90
48535;DHT22;34323;52.022;5.686;2022-10-17T08:57:56;21.40;99.90
48535;DHT22;34323;52.022;5.686;2022-10-17T09:00:22;21.30;99.90
48535;DHT22;34323;52.022;5.686;2022-10-17T09:03:08;21.50;99.90
48535;DHT22;34323;52.022;5.686;2022-10-17T09:06:10;21.40;99.90
48535;DHT22;34323;52.022;5.686;2022-10-17T09:17:25;21.80;99.90
48535;DHT22;34323;52.022;5.686;2022-10-17T09:19:59;21.70;99.90
48535;DHT22;34323;52.022;5.686;2022-10-17T09:22:33;21.80;99.90
48535;DHT22;34323;52.022;5.686;2022-10-17T09:25:02;22.00;99.90
48535;DHT22;34323;52.022;5.686;2022-10-17T09:28:09;22.00;99.90
48535;DHT22;34323;52.022;5.686;2022-10-17T09:30:46;22.00;99.90
48535;DHT22;34323;52.022;5.686;2022-10-17T09:33:14;22.00;99.90
48535;DHT22;34323;52.022;5.686;2022-10-17T09:35:41;22.00;99.90
48535;DHT22;34323;52.022;5.686;2022-10-17T09:38:16;22.00;99.90
48535;DHT22;34323;52.022;5.686;2022-10-17T09:40:43;21.90;99.90
48535;DHT22;34323;52.022;5.686;2022-10-17T09:43:11;22.20;99.90
48535;DHT22;34323;52.022;5.686;2022-10-17T09:45:52;22.10;99.90
48535;DHT22;34323;52.022;5.686;2022-10-17T09:48:25;22.00;99.90
48535;DHT22;34323;52.022;5.686;2022-10-17T09:50:55;22.00;99.90
48535;DHT22;34323;52.022;5.686;2022-10-17T09:53:22;22.10;99.90
48535;DHT22;34323;52.022;5.686;2022-10-17T09:55:52;22.00;99.90
48535;DHT22;34323;52.022;5.686;2022-10-17T09:58:20;22.00;99.90
48535;DHT22;34323;52.022;5.686;2022-10-17T10:00:47;21.80;99.90
48535;DHT22;34323;52.022;5.686;2022-10-17T10:03:18;21.90;99.90
48535;DHT22;34323;52.022;5.686;2022-10-17T10:06:02;22.00;99.90
48535;DHT22;34323;52.022;5.686;2022-10-17T10:08:55;22.30;99.90
48535;DHT22;34323;52.022;5.686;2022-10-17T10:11:46;22.40;99.90
48535;DHT22;34323;52.022;5.686;2022-10-17T10:16:49;22.40;99.90
48535;DHT22;34323;52.022;5.686;2022-10-17T10:19:35;22.10;99.90
48535;DHT22;34323;52.022;5.686;2022-10-17T10:22:03;21.80;99.90
48535;DHT22;34323;52.022;5.686;2022-10-17T10:24:30;21.90;99.90
48535;DHT22;34323;52.022;5.686;2022-10-17T10:26:58;22.10;99.90
48535;DHT22;34323;52.022;5.686;2022-10-17T10:29:37;22.00;99.90
48535;DHT22;34323;52.022;5.686;2022-10-17T10:32:20;22.10;99.90
48535;DHT22;34323;52.022;5.686;2022-10-17T10:34:55;22.10;99.90
48535;DHT22;34323;52.022;5.686;2022-10-17T10:38:00;22.00;99.90
48535;DHT22;34323;52.022;5.686;2022-10-17T10:40:31;22.20;99.90
48535;DHT22;34323;52.022;5.686;2022-10-17T10:42:59;22.50;99.90
48535;DHT22;34323;52.022;5.686;2022-10-17T10:45:26;22.60;99.90
48535;DHT22;34323;52.022;5.686;2022-10-17T10:47:57;22.60;99.90
48535;DHT22;34323;52.022;5.686;2022-10-17T10:53:17;22.70;99.90
48535;DHT22;34323;52.022;5.686;2022-10-17T10:55:54;22.60;99.90
48535;DHT22;34323;52.022;5.686;2022-10-17T10:58:39;22.70;99.90
48535;DHT22;34323;52.022;5.686;2022-10-17T11:06:47;21.90;99.90
48535;DHT22;34323;52.022;5.686;2022-10-17T11:12:31;21.30;99.90
48535;DHT22;34323;52.022;5.686;2022-10-17T11:17:58;21.80;99.90
48535;DHT22;34323;52.022;5.686;2022-10-17T11:23:23;21.60;99.90
48535;DHT22;34323;52.022;5.686;2022-10-17T11:25:53;21.60;99.90
48535;DHT22;34323;52.022;5.686;2022-10-17T11:28:23;21.50;99.90
48535;DHT22;34323;52.022;5.686;2022-10-17T11:31:08;21.40;99.90
48535;DHT22;34323;52.022;5.686;2022-10-17T11:36:17;21.10;99.90
48535;DHT22;34323;52.022;5.686;2022-10-17T11:38:46;21.30;99.90
48535;DHT22;34323;52.022;5.686;2022-10-17T11:41:26;21.60;99.90
48535;DHT22;34323;52.022;5.686;2022-10-17T11:43:58;21.60;99.90
48535;DHT22;34323;52.022;5.686;2022-10-17T11:46:26;21.60;99.90
48535;DHT22;34323;52.022;5.686;2022-10-17T11:51:29;21.80;99.90
48535;DHT22;34323;52.022;5.686;2022-10-17T11:57:31;21.90;99.90
48535;DHT22;34323;52.022;5.686;2022-10-17T12:06:16;21.50;99.90
48535;DHT22;34323;52.022;5.686;2022-10-17T12:11:41;22.00;99.90
48535;DHT22;34323;52.022;5.686;2022-10-17T12:17:00;21.90;99.90
48535;DHT22;34323;52.022;5.686;2022-10-17T12:19:34;22.00;99.90
48535;DHT22;34323;52.022;5.686;2022-10-17T12:22:24;22.10;99.90
48535;DHT22;34323;52.022;5.686;2022-10-17T12:25:00;21.90;99.90
48535;DHT22;34323;52.022;5.686;2022-10-17T12:35:37;22.00;99.90
48535;DHT22;34323;52.022;5.686;2022-10-17T12:38:24;22.00;99.90
48535;DHT22;34323;52.022;5.686;2022-10-17T12:40:52;22.40;99.90
48535;DHT22;34323;52.022;5.686;2022-10-17T12:45:57;22.60;99.90
48535;DHT22;34323;52.022;5.686;2022-10-17T12:51:17;22.50;99.90
48535;DHT22;34323;52.022;5.686;2022-10-17T12:56:43;22.70;99.90
48535;DHT22;34323;52.022;5.686;2022-10-17T12:59:19;22.20;99.90
48535;DHT22;34323;52.022;5.686;2022-10-17T13:01:49;21.90;99.90
48535;DHT22;34323;52.022;5.686;2022-10-17T13:04:15;21.90;99.90
48535;DHT22;34323;52.022;5.686;2022-10-17T13:06:47;22.20;99.90
48535;DHT22;34323;52.022;5.686;2022-10-17T13:09:28;22.20;99.90
48535;DHT22;34323;52.022;5.686;2022-10-17T13:11:55;22.50;99.90
48535;DHT22;34323;52.022;5.686;2022-10-17T13:14:23;22.50;99.90
48535;DHT22;34323;52.022;5.686;2022-10-17T13:16:52;22.70;99.90
48535;DHT22;34323;52.022;5.686;2022-10-17T13:19:21;22.60;99.90
48535;DHT22;34323;52.022;5.686;2022-10-17T13:21:55;22.50;99.90
48535;DHT22;34323;52.022;5.686;2022-10-17T13:24:31;22.40;99.90
48535;DHT22;34323;52.022;5.686;2022-10-17T13:26:57;22.60;99.90
48535;DHT22;34323;52.022;5.686;2022-10-17T13:29:24;22.60;99.90
48535;DHT22;34323;52.022;5.686;2022-10-17T13:31:56;22.60;99.90
48535;DHT22;34323;52.022;5.686;2022-10-17T13:34:25;22.70;99.90
48535;DHT22;34323;52.022;5.686;2022-10-17T13:36:53;22.50;99.90
48535;DHT22;34323;52.022;5.686;2022-10-17T13:39:24;22.80;99.90
48535;DHT22;34323;52.022;5.686;2022-10-17T13:41:52;22.80;99.90
48535;DHT22;34323;52.022;5.686;2022-10-17T13:44:25;22.80;99.90
48535;DHT22;34323;52.022;5.686;2022-10-17T13:46:52;22.60;99.90
48535;DHT22;34323;52.022;5.686;2022-10-17T13:49:39;22.30;99.90
48535;DHT22;34323;52.022;5.686;2022-10-17T13:54:50;22.30;99.90
48535;DHT22;34323;52.022;5.686;2022-10-17T13:57:24;22.20;99.90
48535;DHT22;34323;52.022;5.686;2022-10-17T13:59:53;22.60;99.90
48535;DHT22;34323;52.022;5.686;2022-10-17T14:02:22;22.80;99.90
48535;DHT22;34323;52.022;5.686;2022-10-17T14:05:17;22.50;99.90
48535;DHT22;34323;52.022;5.686;2022-10-17T14:07:54;22.20;99.90
48535;DHT22;34323;52.022;5.686;2022-10-17T14:12:48;22.30;99.90
48535;DHT22;34323;52.022;5.686;2022-10-17T14:15:14;22.40;99.90
48535;DHT22;34323;52.022;5.686;2022-10-17T14:17:41;22.60;99.90
48535;DHT22;34323;52.022;5.686;2022-10-17T14:20:19;22.60;99.90
48535;DHT22;34323;52.022;5.686;2022-10-17T14:22:46;22.80;99.90
48535;DHT22;34323;52.022;5.686;2022-10-17T14:25:36;23.00;99.90
48535;DHT22;34323;52.022;5.686;2022-10-17T14:30:40;22.80;99.90
48535;DHT22;34323;52.022;5.686;2022-10-17T14:33:27;23.10;99.90
48535;DHT22;34323;52.022;5.686;2022-10-17T14:35:55;23.30;99.90
48535;DHT22;34323;52.022;5.686;2022-10-17T14:38:22;23.30;99.90
48535;DHT22;34323;52.022;5.686;2022-10-17T14:40:50;23.30;99.90
48535;DHT22;34323;52.022;5.686;2022-10-17T14:43:21;23.00;99.90
48535;DHT22;34323;52.022;5.686;2022-10-17T14:45:47;23.00;99.90
48535;DHT22;34323;52.022;5.686;2022-10-17T14:48:19;22.60;99.90
48535;DHT22;34323;52.022;5.686;2022-10-17T14:51:10;22.00;99.90
48535;DHT22;34323;52.022;5.686;2022-10-17T14:53:36;22.20;99.90
48535;DHT22;34323;52.022;5.686;2022-10-17T14:56:04;22.30;99.90
48535;DHT22;34323;52.022;5.686;2022-10-17T14:58:44;22.50;99.90
48535;DHT22;34323;52.022;5.686;2022-10-17T15:01:09;22.80;99.90
48535;DHT22;34323;52.022;5.686;2022-10-17T15:03:35;22.80;99.90
48535;DHT22;34323;52.022;5.686;2022-10-17T15:06:18;22.90;99.90
48535;DHT22;34323;52.022;5.686;2022-10-17T15:08:44;23.10;99.90
48535;DHT22;34323;52.022;5.686;2022-10-17T15:11:10;23.00;99.90
48535;DHT22;34323;52.022;5.686;2022-10-17T15:13:36;22.80;99.90
48535;DHT22;34323;52.022;5.686;2022-10-17T15:16:04;22.50;99.90
48535;DHT22;34323;52.022;5.686;2022-10-17T15:18:31;22.50;99.90
48535;DHT22;34323;52.022;5.686;2022-10-17T15:20:56;22.30;99.90
48535;DHT22;34323;52.022;5.686;2022-10-17T15:23:22;22.40;99.90
48535;DHT22;34323;52.022;5.686;2022-10-17T15:25:48;22.40;99.90
48535;DHT22;34323;52.022;5.686;2022-10-17T15:28:13;22.20;99.90
48535;DHT22;34323;52.022;5.686;2022-10-17T15:30:39;22.10;99.90
48535;DHT22;34323;52.022;5.686;2022-10-17T15:33:04;22.30;99.90
48535;DHT22;34323;52.022;5.686;2022-10-17T15:35:30;22.70;99.90
48535;DHT22;34323;52.022;5.686;2022-10-17T15:37:55;22.90;99.90
48535;DHT22;34323;52.022;5.686;2022-10-17T15:40:27;23.00;99.90
48535;DHT22;34323;52.022;5.686;2022-10-17T15:42:53;23.10;99.90
48535;DHT22;34323;52.022;5.686;2022-10-17T15:45:20;23.00;99.90
48535;DHT22;34323;52.022;5.686;2022-10-17T15:47:52;23.20;99.90
48535;DHT22;34323;52.022;5.686;2022-10-17T15:50:18;23.20;99.90
48535;DHT22;34323;52.022;5.686;2022-10-17T15:52:44;23.30;99.90
48535;DHT22;34323;52.022;5.686;2022-10-17T15:55:11;23.40;99.90
48535;DHT22;34323;52.022;5.686;2022-10-17T15:57:40;23.50;99.90
48535;DHT22;34323;52.022;5.686;2022-10-17T16:00:29;23.50;99.90
48535;DHT22;34323;52.022;5.686;2022-10-17T16:02:54;23.70;99.90
48535;DHT22;34323;52.022;5.686;2022-10-17T16:05:23;23.80;99.90
48535;DHT22;34323;52.022;5.686;2022-10-17T16:07:51;23.90;99.90
48535;DHT22;34323;52.022;5.686;2022-10-17T16:10:17;23.40;99.90
48535;DHT22;34323;52.022;5.686;2022-10-17T16:12:43;23.20;99.90
48535;DHT22;34323;52.022;5.686;2022-10-17T16:15:14;23.30;99.90
48535;DHT22;34323;52.022;5.686;2022-10-17T16:17:40;23.20;99.90
48535;DHT22;34323;52.022;5.686;2022-10-17T16:20:06;23.50;99.90
48535;DHT22;34323;52.022;5.686;2022-10-17T16:22:33;23.70;99.90
48535;DHT22;34323;52.022;5.686;2022-10-17T16:25:06;23.60;99.90
48535;DHT22;34323;52.022;5.686;2022-10-17T16:27:35;23.60;99.90
48535;DHT22;34323;52.022;5.686;2022-10-17T16:30:05;23.40;99.90
48535;DHT22;34323;52.022;5.686;2022-10-17T16:32:32;23.30;99.90
48535;DHT22;34323;52.022;5.686;2022-10-17T16:34:57;23.30;99.90
48535;DHT22;34323;52.022;5.686;2022-10-17T16:37:25;23.60;99.90
48535;DHT22;34323;52.022;5.686;2022-10-17T16:39:50;23.60;99.90
48535;DHT22;34323;52.022;5.686;2022-10-17T16:42:18;23.80;99.90
48535;DHT22;34323;52.022;5.686;2022-10-17T16:44:44;23.80;99.90
48535;DHT22;34323;52.022;5.686;2022-10-17T16:47:10;23.80;99.90
48535;DHT22;34323;52.022;5.686;2022-10-17T16:49:36;23.90;99.90
48535;DHT22;34323;52.022;5.686;2022-10-17T16:52:02;23.90;99.90
48535;DHT22;34323;52.022;5.686;2022-10-17T16:54:28;23.70;99.90
48535;DHT22;34323;52.022;5.686;2022-10-17T16:56:54;23.60;99.90
48535;DHT22;34323;52.022;5.686;2022-10-17T16:59:22;23.50;99.90
48535;DHT22;34323;52.022;5.686;2022-10-17T17:01:47;23.40;99.90
48535;DHT22;34323;52.022;5.686;2022-10-17T17:04:13;23.30;99.90
48535;DHT22;34323;52.022;5.686;2022-10-17T17:06:38;23.50;99.90
48535;DHT22;34323;52.022;5.686;2022-10-17T17:09:04;23.70;99.90
48535;DHT22;34323;52.022;5.686;2022-10-17T17:11:30;23.60;99.90
48535;DHT22;34323;52.022;5.686;2022-10-17T17:13:57;23.60;99.90
48535;DHT22;34323;52.022;5.686;2022-10-17T17:16:25;23.60;99.90
48535;DHT22;34323;52.022;5.686;2022-10-17T17:18:55;23.60;99.90
48535;DHT22;34323;52.022;5.686;2022-10-17T17:21:21;23.50;99.90
48535;DHT22;34323;52.022;5.686;2022-10-17T17:23:47;23.50;99.90
48535;DHT22;34323;52.022;5.686;2022-10-17T17:26:15;23.50;99.90
48535;DHT22;34323;52.022;5.686;2022-10-17T17:28:41;23.40;99.90
48535;DHT22;34323;52.022;5.686;2022-10-17T17:31:09;23.40;99.90
48535;DHT22;34323;52.022;5.686;2022-10-17T17:33:39;23.40;99.90
48535;DHT22;34323;52.022;5.686;2022-10-17T17:36:05;23.30;99.90
48535;DHT22;34323;52.022;5.686;2022-10-17T17:38:34;23.40;99.90